createdAt,value
2023-04-16T00:00:58.027Z,99542.61
2023-04-16T00:06:10.929Z,99548.41
2023-04-16T00:11:14.131Z,99553.36
2023-04-16T00:16:17.206Z,99552.88
2023-04-16T00:21:19.746Z,99551.01
2023-04-16T00:26:22.795Z,99560.42
2023-04-16T00:31:34.142Z,99560.48
2023-04-16T00:36:37.629Z,99557.08
2023-04-16T00:41:41.549Z,99565.08
2023-04-16T00:46:46.318Z,99563.12
2023-04-16T00:51:48.812Z,99564.43
2023-04-16T00:56:52.544Z,99564.06
2023-04-16T01:01:55.759Z,99567.33
2023-04-16T01:06:59.589Z,99572.98
2023-04-16T01:12:02.499Z,99568.31
2023-04-16T01:17:06.533Z,99569.85
2023-04-16T01:22:09.865Z,99574.79
2023-04-16T01:27:13.613Z,99572.91
2023-04-16T01:32:17.488Z,99573.86
2023-04-16T01:37:21.056Z,99575.89
2023-04-16T01:42:23.102Z,99575.64
2023-04-16T01:47:26.669Z,99581.95
2023-04-16T01:52:29.492Z,99583.30
2023-04-16T01:57:32.429Z,99588.52
2023-04-16T02:02:35.972Z,99593.49
2023-04-16T02:07:39.950Z,99591.34
2023-04-16T02:12:43.733Z,99594.63
2023-04-16T02:17:48.576Z,99601.20
2023-04-16T02:22:51.222Z,99605.30
2023-04-16T02:27:55.232Z,99608.15
2023-04-16T02:32:58.143Z,99610.86
2023-04-16T02:38:04.823Z,99617.24
2023-04-16T02:43:07.369Z,99622.32
2023-04-16T02:48:10.260Z,99624.71
2023-04-16T02:53:14.928Z,99630.85
2023-04-16T02:58:17.880Z,99637.21
2023-04-16T03:03:21.688Z,99643.52
2023-04-16T03:08:24.770Z,99647.00
2023-04-16T03:13:27.773Z,99653.11
2023-04-16T03:18:30.668Z,99654.64
2023-04-16T03:23:35.877Z,99656.52
2023-04-16T03:28:39.831Z,99658.98
2023-04-16T03:33:43.380Z,99661.15
2023-04-16T03:38:47.226Z,99667.74
2023-04-16T03:43:51.699Z,99668.89
2023-04-16T03:48:55.752Z,99671.22
2023-04-16T03:53:59.617Z,99678.00
2023-04-16T03:59:03.056Z,99685.29
2023-04-16T04:04:10.175Z,99683.75
2023-04-16T04:09:14.032Z,99689.18
2023-04-16T04:14:16.301Z,99696.38
2023-04-16T04:19:19.522Z,99700.20
2023-04-16T04:24:23.599Z,99703.09
2023-04-16T04:29:27.153Z,99708.04
2023-04-16T04:34:31.318Z,99714.38
2023-04-16T04:39:34.397Z,99719.64
2023-04-16T04:44:36.599Z,99725.67
2023-04-16T04:49:40.492Z,99725.50
2023-04-16T04:54:45.480Z,99729.45
2023-04-16T04:59:49.836Z,99733.36
2023-04-16T05:04:53.388Z,99740.24
2023-04-16T05:09:57.945Z,99744.42
2023-04-16T05:15:01.668Z,99750.34
2023-04-16T05:20:06.179Z,99759.09
2023-04-16T05:25:09.130Z,99764.48
2023-04-16T05:30:12.637Z,99768.39
2023-04-16T05:35:17.312Z,99776.29
2023-04-16T05:40:20.500Z,99780.98
2023-04-16T05:45:24.058Z,99780.55
2023-04-16T05:50:28.092Z,99785.85
2023-04-16T05:55:30.723Z,99790.66
2023-04-16T06:00:33.857Z,99797.30
2023-04-16T06:05:36.929Z,99799.56
2023-04-16T06:10:40.650Z,99806.35
2023-04-16T06:15:44.745Z,99808.60
2023-04-16T06:20:50.443Z,99809.58
2023-04-16T06:25:54.493Z,99812.27
2023-04-16T06:31:00.274Z,99823.27
2023-04-16T06:36:03.166Z,99818.15
2023-04-16T06:41:06.264Z,99817.69
2023-04-16T06:46:09.955Z,99817.14
2023-04-16T06:51:13.381Z,99818.77
2023-04-16T06:56:16.734Z,99822.55
2023-04-16T07:01:23.012Z,99822.81
2023-04-16T07:06:28.332Z,99826.63
2023-04-16T07:11:33.968Z,99829.80
2023-04-16T07:16:39.046Z,99838.67
2023-04-16T07:21:43.711Z,99848.42
2023-04-16T07:26:46.566Z,99852.15
2023-04-16T07:31:49.258Z,99850.69
2023-04-16T07:36:52.098Z,99858.38
2023-04-16T07:41:55.068Z,99868.59
2023-04-16T07:46:57.284Z,99875.08
2023-04-16T07:52:00.586Z,99879.85
2023-04-16T07:57:02.875Z,99883.64
2023-04-16T08:02:06.160Z,99883.46
2023-04-16T08:07:09.836Z,99894.73
2023-04-16T08:12:12.785Z,99898.44
2023-04-16T08:17:16.528Z,99899.88
2023-04-16T08:22:25.747Z,99907.55
2023-04-16T08:27:29.015Z,99914.05
2023-04-16T08:32:32.912Z,99917.55
2023-04-16T08:37:37.716Z,99921.34
2023-04-16T08:42:49.274Z,99928.20
2023-04-16T08:47:53.175Z,99932.09
2023-04-16T08:53:06.704Z,99934.02
2023-04-16T08:58:21.932Z,99943.09
2023-04-16T09:03:24.363Z,99948.25
2023-04-16T09:08:28.161Z,99948.72
2023-04-16T09:13:31.835Z,99959.52
2023-04-16T09:18:34.863Z,99966.80
2023-04-16T09:23:39.719Z,99971.58
2023-04-16T09:28:46.390Z,99971.44
2023-04-16T09:34:09.538Z,99971.05
2023-04-16T09:39:20.209Z,99971.48
2023-04-16T09:44:38.734Z,99974.54
2023-04-16T09:49:43.949Z,99976.48
2023-04-16T09:54:55.061Z,99978.50
2023-04-16T10:00:07.476Z,99981.17
2023-04-16T10:05:16.889Z,99981.68
2023-04-16T10:10:20.301Z,99983.85
2023-04-16T10:15:23.150Z,99988.85
2023-04-16T10:20:27.504Z,99992.55
2023-04-16T10:25:30.759Z,99999.88
2023-04-16T10:30:37.267Z,100003.41
2023-04-16T10:35:40.508Z,100005.54
2023-04-16T10:40:46.225Z,100001.98
2023-04-16T10:45:49.588Z,100000.85
2023-04-16T10:51:00.603Z,99996.98
2023-04-16T10:56:05.553Z,99994.44
2023-04-16T11:01:14.041Z,100001.11
2023-04-16T11:06:24.183Z,100004.33
2023-04-16T11:11:39.614Z,99999.56
2023-04-16T11:16:43.307Z,100003.19
2023-04-16T11:21:47.700Z,100004.34
2023-04-16T11:26:54.620Z,100000.48
2023-04-16T11:31:58.819Z,99998.58
2023-04-16T11:37:01.599Z,100001.45
2023-04-16T11:42:04.604Z,100000.60
2023-04-16T11:47:07.820Z,99996.23
2023-04-16T11:52:10.893Z,100003.05
2023-04-16T11:57:15.444Z,100007.39
2023-04-16T12:02:18.830Z,100003.91
2023-04-16T12:07:22.699Z,100005.75
2023-04-16T12:12:27.900Z,100004.02
2023-04-16T12:17:32.585Z,99998.80
2023-04-16T12:22:37.515Z,99999.07
2023-04-16T12:27:55.852Z,100000.55
2023-04-16T12:33:16.535Z,99998.10
2023-04-16T12:38:19.056Z,99997.02
2023-04-16T12:43:21.129Z,99991.48
2023-04-16T12:48:23.803Z,99990.11
2023-04-16T12:53:26.924Z,99984.93
2023-04-16T12:58:30.341Z,99982.48
2023-04-16T13:03:32.672Z,99987.57
2023-04-16T13:49:10.253Z,100008.36
2023-04-16T14:13:34.724Z,100029.23
2023-04-16T14:18:42.345Z,100030.38
2023-04-16T14:23:47.189Z,100024.85
2023-04-16T14:28:50.595Z,100019.89
2023-04-16T14:33:53.086Z,100023.98
2023-04-16T14:38:56.058Z,100018.11
2023-04-16T14:44:00.403Z,100016.89
2023-04-16T14:49:02.796Z,100023.86
2023-04-16T14:54:06.641Z,100023.14
2023-04-16T14:59:09.062Z,100029.39
2023-04-16T15:04:12.402Z,100028.14
2023-04-16T15:09:15.427Z,100032.13
2023-04-16T15:14:18.988Z,100032.54
2023-04-16T15:19:22.429Z,100040.98
2023-04-16T15:24:26.042Z,100036.15
2023-04-16T15:29:28.797Z,100041.88
2023-04-16T15:34:31.277Z,100048.40
2023-04-16T15:39:35.325Z,100043.45
2023-04-16T15:44:42.209Z,100049.23
2023-04-16T15:49:45.220Z,100053.34
2023-04-16T15:54:49.355Z,100053.56
2023-04-16T16:00:05.913Z,100052.97
2023-04-16T16:05:14.248Z,100056.42
2023-04-16T16:10:16.840Z,100053.91
2023-04-16T16:15:22.016Z,100058.73
2023-04-16T16:20:25.601Z,100064.53
2023-04-16T16:25:30.056Z,100065.48
2023-04-16T16:30:34.923Z,100067.94
2023-04-16T16:35:38.738Z,100070.33
2023-04-16T16:40:43.183Z,100073.21
2023-04-16T16:45:47.081Z,100073.77
2023-04-16T16:50:50.123Z,100076.40
2023-04-16T16:55:54.048Z,100075.21
2023-04-16T17:00:56.792Z,100075.75
2023-04-16T17:06:03.572Z,100077.48
2023-04-16T17:11:06.903Z,100083.61
2023-04-16T17:16:10.734Z,100088.39
2023-04-16T17:21:16.538Z,100094.40
2023-04-16T17:26:20.633Z,100102.55
2023-04-16T17:31:26.233Z,100106.08
2023-04-16T17:36:35.130Z,100109.24
2023-04-16T17:41:39.236Z,100115.14
2023-04-16T17:46:44.053Z,100115.60
2023-04-16T17:51:54.968Z,100124.96
2023-04-16T17:57:03.504Z,100132.04
2023-04-16T18:02:08.597Z,100139.50
2023-04-16T18:07:16.113Z,100144.80
2023-04-16T18:12:23.291Z,100145.83
2023-04-16T18:17:25.833Z,100151.92
2023-04-16T18:22:36.432Z,100157.36
2023-04-16T18:27:40.980Z,100160.11
2023-04-16T18:33:10.082Z,100163.27
2023-04-16T18:38:18.480Z,100167.29
2023-04-16T18:43:23.973Z,100166.22
2023-04-16T18:48:28.182Z,100169.80
2023-04-16T18:53:31.347Z,100174.48
2023-04-16T18:58:34.219Z,100180.61
2023-04-16T19:03:37.784Z,100180.77
2023-04-16T19:08:40.526Z,100182.65
2023-04-16T19:13:43.738Z,100191.39
2023-04-16T19:18:47.279Z,100189.29
2023-04-16T19:23:51.448Z,100199.17
2023-04-16T19:28:55.071Z,100196.50
2023-04-16T19:33:58.479Z,100200.30
2023-04-16T19:39:00.737Z,100205.63
2023-04-16T19:44:04.062Z,100202.27
2023-04-16T19:49:06.795Z,100202.89
2023-04-16T19:54:09.217Z,100202.48
2023-04-16T19:59:11.600Z,100204.20
2023-04-16T20:04:15.926Z,100202.83
2023-04-16T20:09:20.009Z,100213.66
2023-04-16T20:14:23.164Z,100218.89
2023-04-16T20:19:29.944Z,100218.64
2023-04-16T20:24:33.873Z,100218.00
2023-04-16T20:29:36.906Z,100218.35
2023-04-16T20:34:40.751Z,100225.19
2023-04-16T20:39:46.894Z,100227.05
2023-04-16T20:44:50.412Z,100230.41
2023-04-16T20:49:54.655Z,100230.23
2023-04-16T20:54:58.995Z,100230.49
2023-04-16T21:00:04.123Z,100228.89
2023-04-16T21:05:14.382Z,100234.31
2023-04-16T21:10:19.780Z,100235.52
2023-04-16T21:15:23.947Z,100238.95
2023-04-16T21:20:30.545Z,100241.09
2023-04-16T21:25:34.538Z,100240.25
2023-04-16T21:30:36.640Z,100235.55
2023-04-16T21:35:39.332Z,100232.44
2023-04-16T21:40:42.500Z,100234.20
2023-04-16T21:45:44.973Z,100229.08
2023-04-16T21:50:47.945Z,100231.86
2023-04-16T21:55:50.193Z,100233.20
2023-04-16T22:00:54.260Z,100235.88
2023-04-16T22:06:01.059Z,100234.05
2023-04-16T22:11:04.255Z,100235.34
2023-04-16T22:16:08.821Z,100233.82
2023-04-16T22:21:14.441Z,100232.48
2023-04-16T22:26:17.383Z,100231.45
2023-04-16T22:31:20.262Z,100228.23
2023-04-16T22:36:24.401Z,100229.11
2023-04-16T22:41:28.019Z,100233.64
2023-04-16T22:46:31.068Z,100226.40
2023-04-16T22:51:35.359Z,100229.34
2023-04-16T22:56:39.072Z,100229.12
2023-04-16T23:01:42.486Z,100236.99
2023-04-16T23:06:46.318Z,100234.79
2023-04-16T23:11:51.177Z,100231.89
2023-04-16T23:16:54.351Z,100230.46
2023-04-16T23:22:01.547Z,100232.52
2023-04-16T23:27:04.853Z,100231.53
2023-04-16T23:32:08.136Z,100227.20
2023-04-16T23:37:11.022Z,100229.41
2023-04-16T23:42:14.274Z,100227.98
2023-04-16T23:47:16.205Z,100220.91
2023-04-16T23:52:18.891Z,100222.35
2023-04-16T23:57:22.949Z,100222.54
